sensor_id;sensor_type;location;lat;lon;timestamp;pressure;altitude;pressure_sealevel;temperature;humidity
47670;BME280;33408;52.062;11.722;2023-05-27T00:02:16;102436.50;;;9.42;100.00
47670;BME280;33408;52.062;11.722;2023-05-27T00:04:43;102433.38;;;9.66;100.00
47670;BME280;33408;52.062;11.722;2023-05-27T00:07:10;102441.91;;;9.60;100.00
47670;BME280;33408;52.062;11.722;2023-05-27T00:09:38;102438.63;;;9.74;100.00
47670;BME280;33408;52.062;11.722;2023-05-27T00:12:04;102441.84;;;9.56;100.00
47670;BME280;33408;52.062;11.722;2023-05-27T00:14:31;102444.13;;;9.33;100.00
47670;BME280;33408;52.062;11.722;2023-05-27T00:16:57;102448.09;;;9.09;100.00
47670;BME280;33408;52.062;11.722;2023-05-27T00:19:24;102446.84;;;8.85;100.00
47670;BME280;33408;52.062;11.722;2023-05-27T00:21:51;102442.63;;;8.89;100.00
47670;BME280;33408;52.062;11.722;2023-05-27T00:24:18;102446.91;;;8.90;100.00
47670;BME280;33408;52.062;11.722;2023-05-27T00:26:46;102446.16;;;8.96;100.00
47670;BME280;33408;52.062;11.722;2023-05-27T00:29:13;102444.59;;;9.07;100.00
47670;BME280;33408;52.062;11.722;2023-05-27T00:31:40;102448.41;;;8.75;100.00
47670;BME280;33408;52.062;11.722;2023-05-27T00:34:06;102451.31;;;8.44;100.00
47670;BME280;33408;52.062;11.722;2023-05-27T00:36:33;102454.81;;;8.47;100.00
47670;BME280;33408;52.062;11.722;2023-05-27T00:39:00;102456.13;;;8.27;100.00
47670;BME280;33408;52.062;11.722;2023-05-27T00:41:27;102456.03;;;8.22;100.00
47670;BME280;33408;52.062;11.722;2023-05-27T00:43:56;102456.13;;;8.27;100.00
47670;BME280;33408;52.062;11.722;2023-05-27T00:46:23;102451.09;;;8.33;100.00
47670;BME280;33408;52.062;11.722;2023-05-27T00:48:49;102464.88;;;8.33;100.00
47670;BME280;33408;52.062;11.722;2023-05-27T00:51:16;102463.34;;;8.43;100.00
47670;BME280;33408;52.062;11.722;2023-05-27T00:53:43;102455.78;;;8.52;100.00
47670;BME280;33408;52.062;11.722;2023-05-27T00:56:11;102449.03;;;8.61;100.00
47670;BME280;33408;52.062;11.722;2023-05-27T00:58:40;102455.09;;;8.64;100.00
47670;BME280;33408;52.062;11.722;2023-05-27T01:01:08;102459.53;;;8.70;100.00
47670;BME280;33408;52.062;11.722;2023-05-27T01:03:35;102454.34;;;8.68;100.00
47670;BME280;33408;52.062;11.722;2023-05-27T01:06:08;102461.97;;;8.62;100.00
47670;BME280;33408;52.062;11.722;2023-05-27T01:08:45;102462.75;;;8.58;100.00
47670;BME280;33408;52.062;11.722;2023-05-27T01:11:16;102451.66;;;8.64;100.00
47670;BME280;33408;52.062;11.722;2023-05-27T01:13:50;102454.25;;;8.64;100.00
47670;BME280;33408;52.062;11.722;2023-05-27T01:16:19;102462.97;;;8.70;100.00
47670;BME280;33408;52.062;11.722;2023-05-27T01:18:48;102461.28;;;8.72;100.00
47670;BME280;33408;52.062;11.722;2023-05-27T01:21:16;102453.44;;;8.66;100.00
47670;BME280;33408;52.062;11.722;2023-05-27T01:23:47;102457.72;;;8.66;100.00
47670;BME280;33408;52.062;11.722;2023-05-27T01:26:14;102452.44;;;8.60;100.00
47670;BME280;33408;52.062;11.722;2023-05-27T01:28:40;102457.59;;;8.56;100.00
47670;BME280;33408;52.062;11.722;2023-05-27T01:31:13;102453.28;;;8.57;100.00
47670;BME280;33408;52.062;11.722;2023-05-27T01:33:48;102454.81;;;8.46;100.00
47670;BME280;33408;52.062;11.722;2023-05-27T01:36:20;102459.09;;;8.44;100.00
47670;BME280;33408;52.062;11.722;2023-05-27T01:38:51;102457.41;;;8.47;100.00
47670;BME280;33408;52.062;11.722;2023-05-27T01:41:19;102452.19;;;8.44;100.00
47670;BME280;33408;52.062;11.722;2023-05-27T01:43:47;102460.56;;;8.32;100.00
47670;BME280;33408;52.062;11.722;2023-05-27T01:46:15;102457.00;;;8.27;100.00
47670;BME280;33408;52.062;11.722;2023-05-27T01:48:42;102455.78;;;8.10;100.00
47670;BME280;33408;52.062;11.722;2023-05-27T01:51:08;102458.25;;;8.02;100.00
47670;BME280;33408;52.062;11.722;2023-05-27T01:53:35;102455.25;;;7.82;100.00
47670;BME280;33408;52.062;11.722;2023-05-27T01:56:04;102450.78;;;7.73;100.00
47670;BME280;33408;52.062;11.722;2023-05-27T01:58:30;102445.09;;;7.90;100.00
47670;BME280;33408;52.062;11.722;2023-05-27T02:00:57;102452.72;;;7.85;100.00
47670;BME280;33408;52.062;11.722;2023-05-27T02:03:23;102454.38;;;7.81;100.00
47670;BME280;33408;52.062;11.722;2023-05-27T02:05:52;102451.63;;;7.74;100.00
47670;BME280;33408;52.062;11.722;2023-05-27T02:08:18;102453.03;;;7.58;100.00
47670;BME280;33408;52.062;11.722;2023-05-27T02:10:45;102452.75;;;7.87;100.00
47670;BME280;33408;52.062;11.722;2023-05-27T02:13:13;102454.53;;;7.88;100.00
47670;BME280;33408;52.062;11.722;2023-05-27T02:15:40;102454.53;;;7.88;100.00
47670;BME280;33408;52.062;11.722;2023-05-27T02:18:07;102463.03;;;7.83;100.00
47670;BME280;33408;52.062;11.722;2023-05-27T02:20:33;102454.38;;;7.81;100.00
47670;BME280;33408;52.062;11.722;2023-05-27T02:23:05;102453.44;;;7.76;100.00
47670;BME280;33408;52.062;11.722;2023-05-27T02:25:32;102446.78;;;7.88;100.00
47670;BME280;33408;52.062;11.722;2023-05-27T02:27:59;102448.41;;;7.82;100.00
47670;BME280;33408;52.062;11.722;2023-05-27T02:30:29;102439.69;;;7.79;100.00
47670;BME280;33408;52.062;11.722;2023-05-27T02:32:56;102448.34;;;7.79;100.00
47670;BME280;33408;52.062;11.722;2023-05-27T02:35:23;102446.47;;;7.74;100.00
47670;BME280;33408;52.062;11.722;2023-05-27T02:37:49;102433.28;;;7.60;100.00
47670;BME280;33408;52.062;11.722;2023-05-27T02:40:23;102441.56;;;7.45;100.00
47670;BME280;33408;52.062;11.722;2023-05-27T02:42:50;102439.88;;;7.45;100.00
47670;BME280;33408;52.062;11.722;2023-05-27T02:45:17;102434.66;;;7.42;100.00
47670;BME280;33408;52.062;11.722;2023-05-27T02:47:45;102441.38;;;7.37;100.00
47670;BME280;33408;52.062;11.722;2023-05-27T02:50:11;102447.31;;;7.33;100.00
47670;BME280;33408;52.062;11.722;2023-05-27T02:52:38;102445.03;;;7.45;100.00
47670;BME280;33408;52.062;11.722;2023-05-27T02:55:06;102444.88;;;7.39;100.00
47670;BME280;33408;52.062;11.722;2023-05-27T02:57:33;102447.50;;;7.41;100.00
47670;BME280;33408;52.062;11.722;2023-05-27T03:00:00;102442.88;;;7.27;100.00
47670;BME280;33408;52.062;11.722;2023-05-27T03:02:27;102447.22;;;7.28;100.00
47670;BME280;33408;52.062;11.722;2023-05-27T03:04:54;102446.00;;;7.12;100.00
47670;BME280;33408;52.062;11.722;2023-05-27T03:07:22;102447.78;;;7.15;100.00
47670;BME280;33408;52.062;11.722;2023-05-27T03:09:48;102446.94;;;7.16;100.00
47670;BME280;33408;52.062;11.722;2023-05-27T03:12:15;102449.53;;;7.18;100.00
47670;BME280;33408;52.062;11.722;2023-05-27T03:14:42;102452.03;;;7.15;100.00
47670;BME280;33408;52.062;11.722;2023-05-27T03:17:08;102451.66;;;7.36;100.00
47670;BME280;33408;52.062;11.722;2023-05-27T03:19:35;102450.00;;;7.38;100.00
47670;BME280;33408;52.062;11.722;2023-05-27T03:22:03;102453.34;;;7.34;100.00
47670;BME280;33408;52.062;11.722;2023-05-27T03:24:30;102450.41;;;7.56;100.00
47670;BME280;33408;52.062;11.722;2023-05-27T03:26:56;102446.09;;;7.55;100.00
47670;BME280;33408;52.062;11.722;2023-05-27T03:29:23;102441.69;;;7.51;100.00
47670;BME280;33408;52.062;11.722;2023-05-27T03:31:49;102442.22;;;7.76;100.00
47670;BME280;33408;52.062;11.722;2023-05-27T03:34:16;102436.34;;;7.83;100.00
47670;BME280;33408;52.062;11.722;2023-05-27T03:36:42;102432.91;;;7.82;100.00
47670;BME280;33408;52.062;11.722;2023-05-27T03:39:12;102431.91;;;7.77;100.00
47670;BME280;33408;52.062;11.722;2023-05-27T03:41:39;102435.03;;;7.61;100.00
47670;BME280;33408;52.062;11.722;2023-05-27T03:44:05;102431.38;;;8.38;100.00
47670;BME280;33408;52.062;11.722;2023-05-27T03:46:32;102429.28;;;8.66;100.00
47670;BME280;33408;52.062;11.722;2023-05-27T03:48:59;102426.31;;;8.96;100.00
47670;BME280;33408;52.062;11.722;2023-05-27T03:51:26;102429.97;;;8.54;100.00
47670;BME280;33408;52.062;11.722;2023-05-27T03:53:52;102427.66;;;9.26;100.00
47670;BME280;33408;52.062;11.722;2023-05-27T03:56:20;102424.56;;;9.53;100.00
47670;BME280;33408;52.062;11.722;2023-05-27T03:58:48;102427.03;;;10.17;100.00
47670;BME280;33408;52.062;11.722;2023-05-27T04:01:15;102427.69;;;10.84;100.00
47670;BME280;33408;52.062;11.722;2023-05-27T04:03:42;102434.78;;;11.11;100.00
47670;BME280;33408;52.062;11.722;2023-05-27T04:06:09;102430.53;;;11.19;100.00
47670;BME280;33408;52.062;11.722;2023-05-27T04:08:35;102436.75;;;11.55;100.00
47670;BME280;33408;52.062;11.722;2023-05-27T04:11:02;102437.59;;;11.46;100.00
47670;BME280;33408;52.062;11.722;2023-05-27T04:13:30;102434.34;;;11.92;100.00
47670;BME280;33408;52.062;11.722;2023-05-27T04:15:57;102434.28;;;11.88;100.00
47670;BME280;33408;52.062;11.722;2023-05-27T04:18:24;102431.00;;;12.56;100.00
47670;BME280;33408;52.062;11.722;2023-05-27T04:20:51;102433.59;;;12.30;100.00
47670;BME280;33408;52.062;11.722;2023-05-27T04:23:18;102445.69;;;12.19;100.00
47670;BME280;33408;52.062;11.722;2023-05-27T04:25:44;102439.59;;;12.12;100.00
47670;BME280;33408;52.062;11.722;2023-05-27T04:28:11;102432.72;;;12.36;100.00
47670;BME280;33408;52.062;11.722;2023-05-27T04:30:39;102435.22;;;12.00;100.00
47670;BME280;33408;52.062;11.722;2023-05-27T04:33:06;102448.31;;;12.19;100.00
47670;BME280;33408;52.062;11.722;2023-05-27T04:35:34;102440.53;;;12.67;100.00
47670;BME280;33408;52.062;11.722;2023-05-27T04:38:00;102447.47;;;13.02;100.00
47670;BME280;33408;52.062;11.722;2023-05-27T04:40:27;102440.53;;;12.42;100.00
47670;BME280;33408;52.062;11.722;2023-05-27T04:42:54;102443.09;;;13.25;100.00
47670;BME280;33408;52.062;11.722;2023-05-27T04:45:21;102451.53;;;14.00;98.97
47670;BME280;33408;52.062;11.722;2023-05-27T04:47:49;102442.50;;;14.53;94.37
47670;BME280;33408;52.062;11.722;2023-05-27T04:50:15;102447.81;;;15.40;89.63
47670;BME280;33408;52.062;11.722;2023-05-27T04:52:42;102451.13;;;15.58;87.07
47670;BME280;33408;52.062;11.722;2023-05-27T04:55:10;102443.94;;;15.78;83.89
47670;BME280;33408;52.062;11.722;2023-05-27T04:57:36;102446.00;;;14.52;90.45
47670;BME280;33408;52.062;11.722;2023-05-27T05:00:07;102442.88;;;13.95;93.07
47670;BME280;33408;52.062;11.722;2023-05-27T05:02:49;102445.38;;;14.15;96.58
47670;BME280;33408;52.062;11.722;2023-05-27T05:05:26;102446.03;;;14.49;95.83
47670;BME280;33408;52.062;11.722;2023-05-27T05:07:53;102431.13;;;14.68;94.27
47670;BME280;33408;52.062;11.722;2023-05-27T05:10:20;102431.19;;;14.57;94.17
47670;BME280;33408;52.062;11.722;2023-05-27T05:12:46;102443.34;;;15.50;91.42
47670;BME280;33408;52.062;11.722;2023-05-27T05:15:13;102433.03;;;14.40;91.69
47670;BME280;33408;52.062;11.722;2023-05-27T05:17:39;102441.88;;;14.17;93.79
47670;BME280;33408;52.062;11.722;2023-05-27T05:20:08;102440.16;;;14.12;97.64
47670;BME280;33408;52.062;11.722;2023-05-27T05:22:35;102433.66;;;14.76;93.81
47670;BME280;33408;52.062;11.722;2023-05-27T05:25:02;102446.31;;;14.04;97.42
47670;BME280;33408;52.062;11.722;2023-05-27T05:27:29;102442.91;;;13.90;98.77
47670;BME280;33408;52.062;11.722;2023-05-27T05:29:56;102443.03;;;13.61;100.00
47670;BME280;33408;52.062;11.722;2023-05-27T05:32:22;102438.25;;;14.43;97.90
47670;BME280;33408;52.062;11.722;2023-05-27T05:34:49;102431.25;;;14.45;96.54
47670;BME280;33408;52.062;11.722;2023-05-27T05:37:17;102437.75;;;13.73;99.03
47670;BME280;33408;52.062;11.722;2023-05-27T05:39:44;102437.69;;;13.92;100.00
47670;BME280;33408;52.062;11.722;2023-05-27T05:42:10;102434.41;;;14.89;95.51
47670;BME280;33408;52.062;11.722;2023-05-27T05:44:37;102436.38;;;15.52;89.83
47670;BME280;33408;52.062;11.722;2023-05-27T05:47:04;102440.84;;;14.41;95.16
47670;BME280;33408;52.062;11.722;2023-05-27T05:49:31;102436.72;;;15.20;91.77
47670;BME280;33408;52.062;11.722;2023-05-27T05:51:57;102443.66;;;15.22;92.02
47670;BME280;33408;52.062;11.722;2023-05-27T05:54:25;102450.28;;;14.64;96.28
47670;BME280;33408;52.062;11.722;2023-05-27T05:56:52;102452.84;;;15.60;95.33
47670;BME280;33408;52.062;11.722;2023-05-27T05:59:19;102442.94;;;15.06;93.97
47670;BME280;33408;52.062;11.722;2023-05-27T06:01:45;102453.91;;;16.14;91.01
47670;BME280;33408;52.062;11.722;2023-05-27T06:04:12;102442.81;;;15.96;89.43
47670;BME280;33408;52.062;11.722;2023-05-27T06:06:38;102437.72;;;15.08;95.45
47670;BME280;33408;52.062;11.722;2023-05-27T06:09:05;102440.13;;;15.29;94.45
47670;BME280;33408;52.062;11.722;2023-05-27T06:11:33;102440.41;;;14.97;95.09
47670;BME280;33408;52.062;11.722;2023-05-27T06:14:00;102445.19;;;15.42;94.83
47670;BME280;33408;52.062;11.722;2023-05-27T06:16:26;102448.53;;;16.25;90.12
47670;BME280;33408;52.062;11.722;2023-05-27T06:18:53;102443.00;;;15.02;91.72
47670;BME280;33408;52.062;11.722;2023-05-27T06:21:21;102445.66;;;14.95;93.56
47670;BME280;33408;52.062;11.722;2023-05-27T06:23:47;102449.97;;;15.00;95.39
47670;BME280;33408;52.062;11.722;2023-05-27T06:26:14;102451.91;;;14.77;96.35
47670;BME280;33408;52.062;11.722;2023-05-27T06:28:42;102459.78;;;15.60;94.38
47670;BME280;33408;52.062;11.722;2023-05-27T06:31:08;102455.59;;;14.47;97.23
47670;BME280;33408;52.062;11.722;2023-05-27T06:33:35;102456.81;;;15.92;93.40
47670;BME280;33408;52.062;11.722;2023-05-27T06:36:02;102453.03;;;14.44;98.50
47670;BME280;33408;52.062;11.722;2023-05-27T06:38:28;102455.72;;;14.30;99.75
47670;BME280;33408;52.062;11.722;2023-05-27T06:40:55;102446.50;;;15.02;99.50
47670;BME280;33408;52.062;11.722;2023-05-27T06:43:22;102450.34;;;14.50;98.85
47670;BME280;33408;52.062;11.722;2023-05-27T06:45:50;102449.31;;;14.76;98.72
47670;BME280;33408;52.062;11.722;2023-05-27T06:48:17;102457.38;;;15.44;97.06
47670;BME280;33408;52.062;11.722;2023-05-27T06:50:43;102448.91;;;15.19;95.46
47670;BME280;33408;52.062;11.722;2023-05-27T06:53:10;102451.22;;;14.52;97.34
47670;BME280;33408;52.062;11.722;2023-05-27T06:55:38;102453.50;;;14.94;97.02
47670;BME280;33408;52.062;11.722;2023-05-27T06:58:04;102447.84;;;14.38;98.31
47670;BME280;33408;52.062;11.722;2023-05-27T07:00:32;102443.53;;;14.32;99.04
47670;BME280;33408;52.062;11.722;2023-05-27T07:03:00;102449.56;;;15.41;96.22
47670;BME280;33408;52.062;11.722;2023-05-27T07:05:27;102445.41;;;15.22;96.30
47670;BME280;33408;52.062;11.722;2023-05-27T07:07:53;102453.94;;;15.39;97.00
47670;BME280;33408;52.062;11.722;2023-05-27T07:10:20;102449.59;;;15.37;92.52
47670;BME280;33408;52.062;11.722;2023-05-27T07:12:46;102454.44;;;15.72;93.25
47670;BME280;33408;52.062;11.722;2023-05-27T07:15:13;102454.09;;;15.98;91.29
47670;BME280;33408;52.062;11.722;2023-05-27T07:17:39;102452.22;;;16.08;90.83
47670;BME280;33408;52.062;11.722;2023-05-27T07:20:09;102443.78;;;15.89;89.73
47670;BME280;33408;52.062;11.722;2023-05-27T07:22:35;102448.19;;;15.85;89.75
47670;BME280;33408;52.062;11.722;2023-05-27T07:25:02;102445.06;;;15.53;90.12
47670;BME280;33408;52.062;11.722;2023-05-27T07:27:29;102440.72;;;16.21;87.17
47670;BME280;33408;52.062;11.722;2023-05-27T07:29:55;102441.41;;;16.34;84.59
47670;BME280;33408;52.062;11.722;2023-05-27T07:32:24;102429.97;;;16.38;82.36
47670;BME280;33408;52.062;11.722;2023-05-27T07:34:51;102435.78;;;16.59;78.40
47670;BME280;33408;52.062;11.722;2023-05-27T07:37:19;102438.47;;;16.53;79.69
47670;BME280;33408;52.062;11.722;2023-05-27T07:39:47;102438.16;;;16.18;79.76
47670;BME280;33408;52.062;11.722;2023-05-27T07:42:14;102419.72;;;16.79;79.03
47670;BME280;33408;52.062;11.722;2023-05-27T07:44:40;102421.78;;;17.13;77.22
47670;BME280;33408;52.062;11.722;2023-05-27T07:47:07;102424.59;;;16.49;79.05
47670;BME280;33408;52.062;11.722;2023-05-27T07:49:34;102424.03;;;17.31;76.98
47670;BME280;33408;52.062;11.722;2023-05-27T07:52:01;102413.19;;;17.50;75.51
47670;BME280;33408;52.062;11.722;2023-05-27T07:54:30;102418.28;;;17.56;74.81
47670;BME280;33408;52.062;11.722;2023-05-27T07:56:58;102422.28;;;17.74;73.08
47670;BME280;33408;52.062;11.722;2023-05-27T07:59:25;102416.38;;;17.19;72.74
47670;BME280;33408;52.062;11.722;2023-05-27T08:01:52;102409.88;;;17.39;72.32
47670;BME280;33408;52.062;11.722;2023-05-27T08:04:18;102400.94;;;17.05;70.87
47670;BME280;33408;52.062;11.722;2023-05-27T08:06:45;102395.75;;;17.02;71.39
47670;BME280;33408;52.062;11.722;2023-05-27T08:09:11;102393.28;;;17.40;70.89
47670;BME280;33408;52.062;11.722;2023-05-27T08:11:39;102395.97;;;17.37;69.84
47670;BME280;33408;52.062;11.722;2023-05-27T08:14:07;102398.91;;;17.63;70.18
47670;BME280;33408;52.062;11.722;2023-05-27T08:16:34;102386.50;;;17.72;68.97
47670;BME280;33408;52.062;11.722;2023-05-27T08:19:00;102380.47;;;17.68;67.71
47670;BME280;33408;52.062;11.722;2023-05-27T08:21:28;102379.63;;;17.24;69.26
47670;BME280;33408;52.062;11.722;2023-05-27T08:23:55;102379.44;;;17.74;67.51
47670;BME280;33408;52.062;11.722;2023-05-27T08:26:21;102370.53;;;17.82;66.52
47670;BME280;33408;52.062;11.722;2023-05-27T08:28:49;102363.66;;;18.14;65.63
47670;BME280;33408;52.062;11.722;2023-05-27T08:31:16;102372.44;;;18.15;64.88
47670;BME280;33408;52.062;11.722;2023-05-27T08:33:42;102362.31;;;18.35;64.47
47670;BME280;33408;52.062;11.722;2023-05-27T08:36:09;102362.63;;;18.21;64.26
47670;BME280;33408;52.062;11.722;2023-05-27T08:38:36;102362.53;;;18.26;64.77
47670;BME280;33408;52.062;11.722;2023-05-27T08:41:03;102361.56;;;17.93;63.54
47670;BME280;33408;52.062;11.722;2023-05-27T08:43:30;102359.75;;;17.95;66.44
47670;BME280;33408;52.062;11.722;2023-05-27T08:45:58;102361.59;;;18.27;65.73
47670;BME280;33408;52.062;11.722;2023-05-27T08:48:25;102357.41;;;18.20;65.94
47670;BME280;33408;52.062;11.722;2023-05-27T08:50:52;102353.38;;;18.07;66.24
47670;BME280;33408;52.062;11.722;2023-05-27T08:53:19;102353.09;;;18.17;65.19
47670;BME280;33408;52.062;11.722;2023-05-27T08:55:49;102342.22;;;17.98;65.94
47670;BME280;33408;52.062;11.722;2023-05-27T08:58:20;102346.50;;;18.01;66.23
47670;BME280;33408;52.062;11.722;2023-05-27T09:00:47;102346.22;;;18.48;64.37
47670;BME280;33408;52.062;11.722;2023-05-27T09:03:15;102342.31;;;18.63;64.39
47670;BME280;33408;52.062;11.722;2023-05-27T09:05:42;102349.16;;;18.70;64.46
47670;BME280;33408;52.062;11.722;2023-05-27T09:08:09;102334.81;;;18.49;64.68
47670;BME280;33408;52.062;11.722;2023-05-27T09:10:36;102333.06;;;18.49;65.12
47670;BME280;33408;52.062;11.722;2023-05-27T09:13:03;102333.50;;;18.32;65.63
47670;BME280;33408;52.062;11.722;2023-05-27T09:15:31;102338.00;;;18.62;64.05
47670;BME280;33408;52.062;11.722;2023-05-27T09:17:57;102337.34;;;18.86;63.14
47670;BME280;33408;52.062;11.722;2023-05-27T09:20:26;102332.25;;;19.71;61.73
47670;BME280;33408;52.062;11.722;2023-05-27T09:22:56;102330.56;;;19.09;62.07
47670;BME280;33408;52.062;11.722;2023-05-27T09:25:23;102329.31;;;18.92;60.94
47670;BME280;33408;52.062;11.722;2023-05-27T09:27:50;102329.56;;;18.82;61.36
47670;BME280;33408;52.062;11.722;2023-05-27T09:30:19;102330.81;;;19.31;59.01
47670;BME280;33408;52.062;11.722;2023-05-27T09:32:46;102333.03;;;19.15;60.88
47670;BME280;33408;52.062;11.722;2023-05-27T09:35:16;102331.31;;;19.44;58.88
47670;BME280;33408;52.062;11.722;2023-05-27T09:37:44;102326.50;;;19.28;60.30
47670;BME280;33408;52.062;11.722;2023-05-27T09:40:13;102329.88;;;19.34;60.66
47670;BME280;33408;52.062;11.722;2023-05-27T09:42:41;102329.38;;;18.56;59.81
47670;BME280;33408;52.062;11.722;2023-05-27T09:45:09;102328.13;;;17.62;60.76
47670;BME280;33408;52.062;11.722;2023-05-27T09:47:39;102323.31;;;18.20;61.72
47670;BME280;33408;52.062;11.722;2023-05-27T09:50:07;102320.66;;;17.84;61.93
47670;BME280;33408;52.062;11.722;2023-05-27T09:52:36;102323.84;;;18.66;60.59
47670;BME280;33408;52.062;11.722;2023-05-27T09:55:06;102322.03;;;18.35;62.21
47670;BME280;33408;52.062;11.722;2023-05-27T09:57:34;102317.72;;;17.98;62.92
47670;BME280;33408;52.062;11.722;2023-05-27T10:00:02;102315.78;;;18.40;61.15
47670;BME280;33408;52.062;11.722;2023-05-27T10:02:35;102307.78;;;18.78;60.39
47670;BME280;33408;52.062;11.722;2023-05-27T10:05:03;102303.06;;;18.91;61.88
47670;BME280;33408;52.062;11.722;2023-05-27T10:07:36;102303.97;;;18.57;60.27
47670;BME280;33408;52.062;11.722;2023-05-27T10:10:06;102302.28;;;18.87;58.96
47670;BME280;33408;52.062;11.722;2023-05-27T10:12:33;102299.00;;;18.79;59.71
47670;BME280;33408;52.062;11.722;2023-05-27T10:15:01;102294.13;;;18.32;60.02
47670;BME280;33408;52.062;11.722;2023-05-27T10:17:27;102301.75;;;19.06;59.47
47670;BME280;33408;52.062;11.722;2023-05-27T10:19:56;102290.44;;;19.04;60.15
47670;BME280;33408;52.062;11.722;2023-05-27T10:22:23;102287.66;;;19.08;58.49
47670;BME280;33408;52.062;11.722;2023-05-27T10:24:49;102281.41;;;19.42;58.02
47670;BME280;33408;52.062;11.722;2023-05-27T10:27:19;102279.00;;;19.91;59.54
47670;BME280;33408;52.062;11.722;2023-05-27T10:29:56;102273.88;;;19.58;57.22
47670;BME280;33408;52.062;11.722;2023-05-27T10:32:23;102286.47;;;19.19;58.00
47670;BME280;33408;52.062;11.722;2023-05-27T10:34:50;102281.38;;;19.99;57.52
47670;BME280;33408;52.062;11.722;2023-05-27T10:37:20;102270.34;;;20.14;55.70
47670;BME280;33408;52.062;11.722;2023-05-27T10:39:57;102272.72;;;20.20;56.57
47670;BME280;33408;52.062;11.722;2023-05-27T10:42:25;102258.34;;;20.31;56.28
47670;BME280;33408;52.062;11.722;2023-05-27T10:45:03;102261.44;;;20.17;52.53
47670;BME280;33408;52.062;11.722;2023-05-27T10:47:35;102252.88;;;20.37;48.59
47670;BME280;33408;52.062;11.722;2023-05-27T10:50:12;102261.84;;;20.31;53.03
47670;BME280;33408;52.062;11.722;2023-05-27T10:52:40;102259.31;;;20.03;50.65
47670;BME280;33408;52.062;11.722;2023-05-27T10:55:07;102251.34;;;20.30;50.59
47670;BME280;33408;52.062;11.722;2023-05-27T10:57:38;102251.50;;;20.75;48.94
47670;BME280;33408;52.062;11.722;2023-05-27T11:00:06;102243.91;;;20.91;47.72
47670;BME280;33408;52.062;11.722;2023-05-27T11:02:35;102246.03;;;21.04;47.36
47670;BME280;33408;52.062;11.722;2023-05-27T11:05:08;102246.97;;;21.25;47.43
47670;BME280;33408;52.062;11.722;2023-05-27T11:07:36;102244.19;;;20.84;47.11
47670;BME280;33408;52.062;11.722;2023-05-27T11:10:03;102236.56;;;20.00;49.94
47670;BME280;33408;52.062;11.722;2023-05-27T11:12:32;102236.84;;;20.43;49.12
47670;BME280;33408;52.062;11.722;2023-05-27T11:15:00;102224.81;;;20.36;49.55
47670;BME280;33408;52.062;11.722;2023-05-27T11:17:26;102227.81;;;20.98;49.28
47670;BME280;33408;52.062;11.722;2023-05-27T11:19:54;102217.97;;;21.03;48.30
47670;BME280;33408;52.062;11.722;2023-05-27T11:22:21;102215.38;;;20.30;50.01
47670;BME280;33408;52.062;11.722;2023-05-27T11:24:55;102211.63;;;20.85;49.46
47670;BME280;33408;52.062;11.722;2023-05-27T11:27:22;102205.19;;;21.16;49.82
47670;BME280;33408;52.062;11.722;2023-05-27T11:29:50;102196.94;;;21.45;47.49
47670;BME280;33408;52.062;11.722;2023-05-27T11:32:18;102207.47;;;21.23;50.03
47670;BME280;33408;52.062;11.722;2023-05-27T11:34:46;102205.34;;;21.33;50.70
47670;BME280;33408;52.062;11.722;2023-05-27T11:37:13;102198.56;;;21.70;49.06
47670;BME280;33408;52.062;11.722;2023-05-27T11:39:50;102196.97;;;20.77;49.58
47670;BME280;33408;52.062;11.722;2023-05-27T11:42:20;102193.88;;;21.12;48.59
47670;BME280;33408;52.062;11.722;2023-05-27T11:44:50;102179.31;;;21.89;46.55
47670;BME280;33408;52.062;11.722;2023-05-27T11:47:19;102182.28;;;21.60;47.15
47670;BME280;33408;52.062;11.722;2023-05-27T11:49:46;102176.69;;;21.89;48.08
47670;BME280;33408;52.062;11.722;2023-05-27T11:52:13;102175.13;;;22.24;46.40
47670;BME280;33408;52.062;11.722;2023-05-27T11:54:39;102168.09;;;22.04;46.01
47670;BME280;33408;52.062;11.722;2023-05-27T11:57:06;102168.50;;;21.95;46.05
47670;BME280;33408;52.062;11.722;2023-05-27T11:59:36;102164.53;;;21.84;46.71
47670;BME280;33408;52.062;11.722;2023-05-27T12:02:03;102160.72;;;21.92;47.96
47670;BME280;33408;52.062;11.722;2023-05-27T12:04:31;102156.19;;;22.14;46.45
47670;BME280;33408;52.062;11.722;2023-05-27T12:06:58;102144.72;;;22.15;45.01
47670;BME280;33408;52.062;11.722;2023-05-27T12:09:25;102142.59;;;22.24;45.24
47670;BME280;33408;52.062;11.722;2023-05-27T12:11:52;102141.84;;;22.20;46.12
47670;BME280;33408;52.062;11.722;2023-05-27T12:14:20;102137.66;;;22.16;46.86
47670;BME280;33408;52.062;11.722;2023-05-27T12:16:47;102132.78;;;21.86;45.23
47670;BME280;33408;52.062;11.722;2023-05-27T12:19:14;102125.94;;;22.02;46.18
47670;BME280;33408;52.062;11.722;2023-05-27T12:21:42;102120.13;;;22.72;45.37
47670;BME280;33408;52.062;11.722;2023-05-27T12:24:08;102119.06;;;22.38;46.09
47670;BME280;33408;52.062;11.722;2023-05-27T12:26:35;102118.53;;;21.06;47.15
47670;BME280;33408;52.062;11.722;2023-05-27T12:29:02;102117.19;;;21.39;47.47
47670;BME280;33408;52.062;11.722;2023-05-27T12:31:29;102120.63;;;21.41;47.06
47670;BME280;33408;52.062;11.722;2023-05-27T12:33:55;102115.31;;;21.83;46.45
47670;BME280;33408;52.062;11.722;2023-05-27T12:36:22;102106.19;;;21.91;44.72
47670;BME280;33408;52.062;11.722;2023-05-27T12:38:50;102106.09;;;21.30;46.14
47670;BME280;33408;52.062;11.722;2023-05-27T12:41:16;102102.41;;;22.36;46.15
47670;BME280;33408;52.062;11.722;2023-05-27T12:43:43;102109.09;;;22.24;45.94